createdAt,value
2022-09-09T00:00:25.914Z,11.00
2022-09-09T00:03:13.728Z,11.00
2022-09-09T00:05:52.359Z,11.00
2022-09-09T00:08:32.241Z,11.00
2022-09-09T00:11:05.716Z,11.00
2022-09-09T00:13:41.556Z,11.00
2022-09-09T00:16:25.228Z,11.20
2022-09-09T00:19:22.106Z,11.30
2022-09-09T00:22:14.278Z,11.40
2022-09-09T00:24:56.819Z,11.40
2022-09-09T00:27:33.742Z,11.50
2022-09-09T00:30:05.265Z,11.50
2022-09-09T00:32:36.667Z,11.50
2022-09-09T00:35:19.065Z,11.50
2022-09-09T00:37:49.984Z,11.60
2022-09-09T00:40:33.704Z,11.60
2022-09-09T00:43:08.397Z,11.70
2022-09-09T00:46:07.625Z,11.80
2022-09-09T00:49:05.319Z,11.70
2022-09-09T00:51:54.872Z,11.60
2022-09-09T00:54:33.989Z,11.50
2022-09-09T00:57:17.221Z,11.40
2022-09-09T00:59:48.254Z,11.40
2022-09-09T01:02:19.701Z,11.30
2022-09-09T01:04:46.758Z,11.40
2022-09-09T01:07:20.462Z,11.30
2022-09-09T01:10:22.207Z,11.20
2022-09-09T01:12:52.586Z,11.10
2022-09-09T01:15:25.662Z,11.10
2022-09-09T01:18:04.554Z,11.10
2022-09-09T01:20:48.645Z,11.00
2022-09-09T01:23:29.862Z,11.00
2022-09-09T01:26:27.138Z,10.90
2022-09-09T01:28:54.862Z,10.90
2022-09-09T01:31:35.772Z,10.90
2022-09-09T01:34:02.904Z,10.80
2022-09-09T01:36:39.188Z,10.70
2022-09-09T01:39:06.230Z,10.70
2022-09-09T01:41:33.275Z,10.70
2022-09-09T01:44:00.103Z,10.80
2022-09-09T01:46:28.055Z,10.90
2022-09-09T01:48:56.365Z,10.90
2022-09-09T01:51:24.296Z,11.00
2022-09-09T01:53:51.348Z,11.10
2022-09-09T01:56:41.100Z,11.20
2022-09-09T01:59:13.952Z,11.30
2022-09-09T02:01:49.704Z,11.40
2022-09-09T02:04:44.937Z,11.50
2022-09-09T02:07:32.962Z,11.50
2022-09-09T02:10:21.773Z,11.50
2022-09-09T02:12:58.531Z,11.50
2022-09-09T02:15:33.456Z,11.50
2022-09-09T02:18:04.245Z,11.50
2022-09-09T02:20:35.161Z,11.50
2022-09-09T02:23:03.727Z,11.50
2022-09-09T02:25:30.978Z,11.50
2022-09-09T02:28:01.239Z,11.50
2022-09-09T02:30:31.807Z,11.50
2022-09-09T02:33:00.452Z,11.60
2022-09-09T02:35:31.059Z,11.60
2022-09-09T02:38:02.512Z,11.70
2022-09-09T02:40:29.464Z,11.70
2022-09-09T02:42:56.642Z,11.70
2022-09-09T02:45:29.553Z,11.80
2022-09-09T02:48:02.647Z,11.90
2022-09-09T02:50:33.191Z,11.90
2022-09-09T02:53:18.619Z,11.90
2022-09-09T02:55:49.661Z,11.90
2022-09-09T02:58:19.184Z,11.90
2022-09-09T03:00:51.646Z,12.00
2022-09-09T03:03:20.596Z,12.10
2022-09-09T03:05:47.834Z,12.20
2022-09-09T03:08:15.154Z,12.40
2022-09-09T03:10:42.178Z,12.50
2022-09-09T03:13:09.195Z,12.50
2022-09-09T03:15:36.752Z,12.60
2022-09-09T03:18:03.672Z,12.60
2022-09-09T03:20:31.200Z,12.70
2022-09-09T03:22:58.604Z,12.70
2022-09-09T03:25:25.684Z,12.80
2022-09-09T03:27:56.002Z,12.80
2022-09-09T03:30:24.005Z,12.90
2022-09-09T03:32:50.910Z,12.90
2022-09-09T03:35:17.981Z,13.00
2022-09-09T03:37:44.879Z,13.00
2022-09-09T03:40:12.217Z,13.10
2022-09-09T03:42:39.895Z,13.10
2022-09-09T03:45:10.049Z,13.20
2022-09-09T03:47:36.969Z,13.20
2022-09-09T03:50:05.717Z,13.20
2022-09-09T03:52:32.511Z,13.20
2022-09-09T03:54:59.434Z,13.30
2022-09-09T03:57:26.201Z,13.30
2022-09-09T03:59:52.944Z,13.30
2022-09-09T04:02:19.883Z,13.30
2022-09-09T04:04:46.776Z,13.30
2022-09-09T04:07:13.785Z,13.30
2022-09-09T04:09:40.637Z,13.30
2022-09-09T04:12:07.759Z,13.20
2022-09-09T04:14:34.611Z,13.20
2022-09-09T04:17:01.467Z,13.20
2022-09-09T04:19:28.287Z,13.20
2022-09-09T04:21:55.063Z,13.30
2022-09-09T04:24:22.580Z,13.30
2022-09-09T04:26:49.344Z,13.30
2022-09-09T04:29:16.108Z,13.30
2022-09-09T04:31:43.182Z,13.40
2022-09-09T04:34:10.563Z,13.40
2022-09-09T04:36:37.458Z,13.40
2022-09-09T04:39:04.318Z,13.40
2022-09-09T04:41:32.399Z,13.40
2022-09-09T04:44:00.763Z,13.50
2022-09-09T04:46:27.891Z,13.40
2022-09-09T04:48:54.860Z,13.40
2022-09-09T04:51:21.677Z,13.30
2022-09-09T04:53:49.589Z,13.30
2022-09-09T04:56:17.793Z,13.30
2022-09-09T04:58:45.326Z,13.30
2022-09-09T05:01:13.572Z,13.30
2022-09-09T05:03:40.480Z,13.40
2022-09-09T05:06:15.981Z,13.40
2022-09-09T05:08:44.451Z,13.40
2022-09-09T05:11:28.662Z,13.50
2022-09-09T05:13:56.088Z,13.50
2022-09-09T05:16:23.905Z,13.60
2022-09-09T05:18:52.282Z,13.60
2022-09-09T05:21:21.074Z,13.60
2022-09-09T05:23:48.358Z,13.70
2022-09-09T05:26:18.095Z,13.70
2022-09-09T05:28:45.795Z,13.70
2022-09-09T05:31:13.864Z,13.70
2022-09-09T05:33:44.003Z,13.70
2022-09-09T05:36:16.313Z,13.80
2022-09-09T05:38:43.558Z,13.90
2022-09-09T05:41:12.268Z,13.90
2022-09-09T05:43:39.785Z,14.00
2022-09-09T05:46:09.156Z,14.00
2022-09-09T05:48:38.329Z,14.00
2022-09-09T05:51:08.047Z,14.10
2022-09-09T05:53:38.372Z,14.10
2022-09-09T05:56:18.632Z,14.10
2022-09-09T05:58:47.959Z,14.20
2022-09-09T06:01:20.418Z,14.20
2022-09-09T06:03:48.356Z,14.20
2022-09-09T06:06:18.678Z,14.20
2022-09-09T06:08:46.300Z,14.20
2022-09-09T06:11:16.672Z,14.20
2022-09-09T06:13:43.975Z,14.10
2022-09-09T06:16:15.912Z,14.20
2022-09-09T06:18:44.549Z,14.30
2022-09-09T06:21:32.206Z,14.50
2022-09-09T06:24:01.256Z,14.70
2022-09-09T06:26:33.781Z,15.00
2022-09-09T06:29:01.500Z,15.20
2022-09-09T06:31:31.594Z,15.30
2022-09-09T06:33:59.843Z,15.50
2022-09-09T06:36:32.356Z,15.60
2022-09-09T06:38:59.704Z,15.70
2022-09-09T06:41:28.733Z,15.80
2022-09-09T06:43:56.550Z,16.00
2022-09-09T06:46:29.020Z,16.10
2022-09-09T06:48:58.366Z,16.20
2022-09-09T06:51:26.980Z,16.30
2022-09-09T06:53:57.037Z,16.40
2022-09-09T06:56:25.153Z,16.60
2022-09-09T06:58:53.350Z,16.70
2022-09-09T07:01:26.691Z,17.00
2022-09-09T07:03:55.553Z,17.20
2022-09-09T07:06:31.291Z,17.50
2022-09-09T07:09:00.331Z,17.70
2022-09-09T07:11:30.003Z,17.90
2022-09-09T07:13:58.608Z,17.90
2022-09-09T07:16:25.993Z,17.90
2022-09-09T07:18:53.942Z,17.90
2022-09-09T07:21:22.039Z,18.10
2022-09-09T07:23:49.151Z,18.10
2022-09-09T07:26:22.261Z,18.30
2022-09-09T07:28:49.626Z,18.40
2022-09-09T07:31:21.982Z,18.70
2022-09-09T07:33:49.413Z,18.70
2022-09-09T07:36:19.196Z,18.70
2022-09-09T07:38:48.385Z,18.80
2022-09-09T07:41:19.078Z,19.10
2022-09-09T07:43:48.694Z,19.20
2022-09-09T07:46:17.579Z,19.30
2022-09-09T07:48:55.890Z,19.70
2022-09-09T07:51:44.391Z,20.10
2022-09-09T07:54:14.414Z,20.80
2022-09-09T07:56:42.143Z,21.60
2022-09-09T07:59:10.544Z,22.00
2022-09-09T08:01:46.504Z,21.10
2022-09-09T08:04:17.535Z,21.00
2022-09-09T08:06:47.289Z,20.60
2022-09-09T08:09:15.021Z,20.50
2022-09-09T08:11:42.297Z,20.60
2022-09-09T08:14:10.387Z,20.50
2022-09-09T08:16:41.377Z,20.30
2022-09-09T08:19:08.874Z,20.30
2022-09-09T08:21:38.472Z,20.40
2022-09-09T08:24:08.942Z,20.80
2022-09-09T08:26:38.686Z,21.50
2022-09-09T08:29:07.660Z,22.00
2022-09-09T08:31:39.949Z,22.00
2022-09-09T08:34:08.317Z,22.00
2022-09-09T08:36:41.584Z,22.30
2022-09-09T08:39:09.936Z,22.30
2022-09-09T08:41:55.743Z,22.10
2022-09-09T08:44:48.829Z,22.40
2022-09-09T08:48:03.777Z,25.70
2022-09-09T08:50:41.820Z,27.50
2022-09-09T08:53:21.135Z,28.60
2022-09-09T08:56:00.273Z,30.50
2022-09-09T08:58:33.164Z,32.50
2022-09-09T09:01:03.017Z,33.80
2022-09-09T09:03:55.003Z,34.70
2022-09-09T09:06:24.908Z,35.10
2022-09-09T09:09:01.413Z,35.40
2022-09-09T09:11:28.245Z,34.70
2022-09-09T09:14:04.415Z,35.50
2022-09-09T09:17:04.787Z,34.40
2022-09-09T09:19:35.689Z,35.30
2022-09-09T09:22:37.409Z,35.80
2022-09-09T09:25:19.836Z,35.50
2022-09-09T09:27:56.100Z,33.60
2022-09-09T09:30:30.369Z,34.00
2022-09-09T09:33:09.850Z,34.20
2022-09-09T09:35:41.616Z,33.60
2022-09-09T09:41:19.271Z,31.20
2022-09-09T09:43:54.916Z,30.20
2022-09-09T09:46:28.315Z,30.20
2022-09-09T09:49:10.761Z,28.60
2022-09-09T09:51:37.689Z,26.80
2022-09-09T09:54:29.905Z,26.70
2022-09-09T09:56:57.442Z,29.70
2022-09-09T09:59:39.101Z,31.80
2022-09-09T10:02:26.634Z,31.70
2022-09-09T10:05:07.311Z,30.60
2022-09-09T10:07:35.268Z,30.40
2022-09-09T10:10:02.387Z,31.00
2022-09-09T10:12:38.969Z,32.70
2022-09-09T10:15:34.259Z,34.40
2022-09-09T10:18:26.546Z,34.20
2022-09-09T10:21:41.739Z,35.60
2022-09-09T10:24:14.613Z,35.40
2022-09-09T10:26:49.612Z,34.90
2022-09-09T10:29:23.349Z,35.20
2022-09-09T10:32:13.445Z,36.10
2022-09-09T10:34:55.663Z,36.00
2022-09-09T10:37:53.027Z,37.00
2022-09-09T10:40:27.644Z,36.20
2022-09-09T10:43:20.260Z,35.70
2022-09-09T10:46:05.628Z,35.90
2022-09-09T10:49:08.221Z,35.10
2022-09-09T10:51:37.885Z,34.30
2022-09-09T10:54:22.329Z,31.50
2022-09-09T10:56:57.671Z,29.70
2022-09-09T10:59:30.412Z,29.80
2022-09-09T11:02:13.737Z,31.00
2022-09-09T11:05:15.424Z,32.10
2022-09-09T11:07:48.888Z,32.70
2022-09-09T11:10:42.969Z,33.30
2022-09-09T11:13:49.746Z,34.00
2022-09-09T11:16:49.467Z,34.20
2022-09-09T11:19:35.354Z,34.50
2022-09-09T11:22:37.685Z,34.40
2022-09-09T11:25:16.849Z,34.20
2022-09-09T11:27:46.410Z,33.40
2022-09-09T11:31:02.823Z,30.30
2022-09-09T11:33:35.462Z,28.40
2022-09-09T11:36:27.138Z,28.10
2022-09-09T11:39:02.367Z,28.40
2022-09-09T11:41:37.578Z,28.60
2022-09-09T11:44:13.493Z,28.20
2022-09-09T11:46:42.534Z,27.90
2022-09-09T11:49:27.756Z,27.40
2022-09-09T11:51:55.823Z,26.60
2022-09-09T11:54:33.181Z,26.00
2022-09-09T11:57:00.626Z,25.00
2022-09-09T11:59:34.555Z,24.00
2022-09-09T12:02:25.762Z,23.40
2022-09-09T12:05:15.097Z,23.30
2022-09-09T12:07:48.837Z,23.10
2022-09-09T12:10:33.503Z,23.00
2022-09-09T12:13:20.908Z,22.40
2022-09-09T12:15:50.765Z,21.80
2022-09-09T12:18:25.081Z,21.60
2022-09-09T12:21:08.812Z,21.30
2022-09-09T12:23:52.989Z,21.00
2022-09-09T12:26:22.855Z,20.70
2022-09-09T12:28:58.619Z,20.60
2022-09-09T12:31:43.917Z,20.40
2022-09-09T12:34:17.563Z,20.10
2022-09-09T12:36:53.211Z,20.10
2022-09-09T12:39:58.923Z,20.20
2022-09-09T12:42:27.020Z,20.40
2022-09-09T12:44:53.805Z,20.70
2022-09-09T12:47:30.123Z,20.90
2022-09-09T12:49:57.562Z,20.90
2022-09-09T12:52:36.645Z,20.90
2022-09-09T12:55:07.245Z,20.70
2022-09-09T12:57:48.128Z,20.20
2022-09-09T13:00:20.571Z,20.40
2022-09-09T13:02:56.206Z,20.80
2022-09-09T13:05:29.925Z,21.50
2022-09-09T13:08:06.137Z,22.30
2022-09-09T13:10:52.884Z,23.10
2022-09-09T13:13:52.621Z,24.20
2022-09-09T13:16:33.376Z,24.90
2022-09-09T13:19:07.751Z,25.00
2022-09-09T13:21:41.220Z,25.20
2022-09-09T13:24:28.490Z,25.40
2022-09-09T13:26:57.562Z,25.40
2022-09-09T13:29:24.537Z,25.20
2022-09-09T13:31:58.199Z,25.30
2022-09-09T13:34:32.706Z,25.50
2022-09-09T13:37:09.473Z,25.40
2022-09-09T13:39:37.954Z,25.60
2022-09-09T13:42:05.571Z,25.60
2022-09-09T13:44:37.836Z,25.70
2022-09-09T13:47:21.007Z,25.80
2022-09-09T13:49:48.147Z,25.90
2022-09-09T13:52:18.160Z,26.20
2022-09-09T13:54:52.570Z,26.40
2022-09-09T13:57:25.509Z,26.30
2022-09-09T14:00:04.645Z,26.10
2022-09-09T14:02:32.626Z,25.80
2022-09-09T14:04:59.463Z,25.80
2022-09-09T14:07:26.363Z,25.60
2022-09-09T14:09:53.535Z,25.40
2022-09-09T14:12:21.152Z,24.90
2022-09-09T14:14:48.016Z,24.70
2022-09-09T14:17:15.802Z,24.70
2022-09-09T14:19:43.572Z,24.50
2022-09-09T14:22:10.420Z,24.40
2022-09-09T14:24:37.247Z,24.20
2022-09-09T14:27:04.064Z,23.90
2022-09-09T14:29:30.873Z,23.70
2022-09-09T14:31:57.636Z,23.70
2022-09-09T14:34:25.436Z,23.60
2022-09-09T14:36:52.443Z,23.50
2022-09-09T14:39:19.363Z,23.40
2022-09-09T14:41:46.803Z,23.30
2022-09-09T14:44:13.602Z,23.10
2022-09-09T14:46:40.482Z,23.00
2022-09-09T14:49:07.323Z,22.80
2022-09-09T14:51:34.141Z,22.70
2022-09-09T14:54:02.982Z,22.70
2022-09-09T14:56:32.353Z,22.60
2022-09-09T14:59:01.866Z,22.50
2022-09-09T15:01:30.397Z,22.30
2022-09-09T15:04:03.747Z,22.20
2022-09-09T15:06:34.094Z,22.10
2022-09-09T15:09:01.987Z,22.10
2022-09-09T15:11:35.388Z,22.10
2022-09-09T15:14:02.201Z,22.10
2022-09-09T15:16:29.744Z,22.20
2022-09-09T15:18:58.548Z,22.30
2022-09-09T15:21:27.665Z,22.50
2022-09-09T15:23:54.720Z,22.60
2022-09-09T15:26:21.912Z,22.80
2022-09-09T15:28:50.747Z,22.80
2022-09-09T15:31:23.281Z,22.60
2022-09-09T15:33:52.052Z,22.60
2022-09-09T15:36:24.479Z,22.60
2022-09-09T15:38:52.246Z,22.50
2022-09-09T15:41:20.923Z,22.40
2022-09-09T15:43:50.950Z,22.30
2022-09-09T15:46:39.183Z,22.20
2022-09-09T15:49:11.811Z,22.10
2022-09-09T15:51:47.152Z,22.00
2022-09-09T15:54:17.848Z,21.90
2022-09-09T15:56:46.493Z,21.80
2022-09-09T15:59:13.472Z,21.70
2022-09-09T16:01:40.727Z,21.60
2022-09-09T16:04:07.610Z,21.60
2022-09-09T16:06:34.869Z,21.70
2022-09-09T16:09:05.326Z,21.70
2022-09-09T16:11:37.842Z,21.60
2022-09-09T16:14:06.396Z,21.50
2022-09-09T16:16:33.981Z,21.30
2022-09-09T16:19:06.689Z,21.10
2022-09-09T16:21:45.327Z,20.90
2022-09-09T16:24:15.373Z,20.70
2022-09-09T16:26:46.262Z,20.70
2022-09-09T16:29:15.342Z,20.60
2022-09-09T16:31:42.704Z,20.60
2022-09-09T16:34:10.479Z,20.50
2022-09-09T16:36:40.150Z,20.50
2022-09-09T16:39:12.934Z,20.00
2022-09-09T16:41:41.134Z,20.30
2022-09-09T16:44:10.132Z,20.20
2022-09-09T16:46:40.235Z,20.10
2022-09-09T16:49:09.856Z,20.00
2022-09-09T16:51:48.480Z,20.00
2022-09-09T16:54:18.093Z,20.00
2022-09-09T16:56:47.563Z,20.00
2022-09-09T16:59:20.075Z,20.00
2022-09-09T17:01:49.729Z,19.90
2022-09-09T17:04:26.444Z,19.80
2022-09-09T17:06:55.267Z,19.70
2022-09-09T17:09:24.402Z,19.60
2022-09-09T17:11:52.517Z,19.50
2022-09-09T17:14:21.506Z,19.40
2022-09-09T17:16:48.372Z,19.30
2022-09-09T17:19:18.802Z,19.20
2022-09-09T17:22:15.681Z,19.00
2022-09-09T17:24:35.399Z,19.00
2022-09-09T17:27:03.284Z,18.80
2022-09-09T17:29:30.361Z,18.80
2022-09-09T17:31:57.524Z,18.80
2022-09-09T17:34:25.174Z,18.80
2022-09-09T17:36:53.254Z,18.70
2022-09-09T17:39:20.154Z,18.60
2022-09-09T17:41:47.074Z,18.60
2022-09-09T17:44:14.039Z,18.50
2022-09-09T17:46:43.157Z,18.30
2022-09-09T17:49:15.021Z,18.10
2022-09-09T17:51:43.259Z,17.90
2022-09-09T17:54:13.520Z,17.70
2022-09-09T17:56:42.273Z,17.50
2022-09-09T17:59:10.370Z,17.40
2022-09-09T18:01:40.433Z,17.20
2022-09-09T18:04:09.828Z,17.10
2022-09-09T18:06:43.184Z,16.90
2022-09-09T18:09:13.425Z,16.80
2022-09-09T18:11:46.674Z,16.70
2022-09-09T18:14:20.269Z,16.50
2022-09-09T18:16:47.659Z,16.40
2022-09-09T18:19:17.517Z,16.30
2022-09-09T18:21:44.989Z,16.20
2022-09-09T18:24:13.590Z,16.10
2022-09-09T18:26:41.512Z,16.00
2022-09-09T18:29:11.537Z,15.90
2022-09-09T18:31:38.555Z,15.90
2022-09-09T18:34:09.993Z,15.80
2022-09-09T18:36:56.058Z,15.80
2022-09-09T18:39:28.881Z,15.80
2022-09-09T18:42:00.384Z,15.90
2022-09-09T18:44:30.429Z,15.90
2022-09-09T18:46:57.950Z,16.00
2022-09-09T18:49:26.477Z,16.00
2022-09-09T18:51:53.871Z,16.00
2022-09-09T18:54:24.120Z,16.00
2022-09-09T18:56:51.700Z,16.00
2022-09-09T18:59:20.649Z,15.90
2022-09-09T19:01:51.999Z,15.90
2022-09-09T19:04:21.192Z,15.80
2022-09-09T19:06:48.590Z,15.70
2022-09-09T19:09:17.851Z,15.60
2022-09-09T19:11:45.682Z,15.50
2022-09-09T19:14:16.526Z,15.50
2022-09-09T19:16:45.278Z,15.40
2022-09-09T19:19:15.598Z,15.40
2022-09-09T19:21:43.718Z,15.40
2022-09-09T19:24:23.562Z,15.30
2022-09-09T19:26:52.420Z,15.30
2022-09-09T19:29:24.890Z,15.40
2022-09-09T19:32:36.391Z,15.40
2022-09-09T19:34:41.878Z,15.40
2022-09-09T19:37:08.714Z,15.40
2022-09-09T19:39:36.741Z,15.30
2022-09-09T19:42:03.738Z,15.30
2022-09-09T19:44:30.558Z,15.40
2022-09-09T19:46:59.592Z,15.30
2022-09-09T19:49:26.697Z,15.10
2022-09-09T19:51:55.178Z,15.10
2022-09-09T19:54:22.352Z,15.10
2022-09-09T19:56:49.153Z,15.10
2022-09-09T19:59:18.973Z,15.10
2022-09-09T20:01:45.923Z,15.00
2022-09-09T20:04:14.731Z,14.90
2022-09-09T20:06:44.150Z,14.80
2022-09-09T20:09:14.613Z,14.80
2022-09-09T20:11:42.313Z,14.80
2022-09-09T20:14:09.998Z,14.70
2022-09-09T20:16:36.830Z,14.60
2022-09-09T20:19:06.713Z,14.60
2022-09-09T20:21:36.212Z,14.60
2022-09-09T20:24:06.141Z,14.60
2022-09-09T20:26:35.207Z,14.60
2022-09-09T20:29:05.515Z,14.60
2022-09-09T20:31:36.438Z,14.60
2022-09-09T20:34:04.260Z,14.70
2022-09-09T20:36:33.821Z,14.60
2022-09-09T20:39:08.240Z,14.60
2022-09-09T20:41:37.036Z,14.50
2022-09-09T20:44:12.322Z,14.50
2022-09-09T20:46:42.616Z,14.40
2022-09-09T20:49:10.789Z,14.30
2022-09-09T20:51:38.210Z,14.20
2022-09-09T20:54:11.913Z,14.10
2022-09-09T20:56:41.007Z,14.00
2022-09-09T20:59:11.535Z,14.00
2022-09-09T21:01:39.109Z,13.90
2022-09-09T21:04:07.057Z,13.90
2022-09-09T21:06:33.955Z,13.80
2022-09-09T21:09:00.765Z,13.80
2022-09-09T21:11:27.552Z,13.70
2022-09-09T21:13:55.098Z,13.60
2022-09-09T21:16:22.163Z,13.60
2022-09-09T21:18:49.966Z,13.50
2022-09-09T21:21:19.274Z,13.50
2022-09-09T21:23:46.780Z,13.40
2022-09-09T21:26:13.586Z,13.40
2022-09-09T21:28:40.538Z,13.40
2022-09-09T21:31:07.412Z,13.50
2022-09-09T21:33:34.774Z,13.60
2022-09-09T21:36:09.295Z,13.60
2022-09-09T21:38:36.274Z,13.70
2022-09-09T21:41:15.459Z,13.90
2022-09-09T21:43:43.676Z,13.80
2022-09-09T21:46:14.359Z,13.70
2022-09-09T21:48:41.812Z,13.70
2022-09-09T21:51:14.731Z,13.80
2022-09-09T21:53:41.828Z,13.60
2022-09-09T21:56:12.601Z,13.60
2022-09-09T21:58:41.355Z,13.60
2022-09-09T22:01:12.083Z,13.50
2022-09-09T22:03:39.725Z,13.40
2022-09-09T22:06:08.528Z,13.30
2022-09-09T22:08:36.415Z,13.30
2022-09-09T22:11:14.080Z,13.20
2022-09-09T22:13:42.573Z,13.20
2022-09-09T22:16:12.188Z,13.20
2022-09-09T22:18:39.814Z,13.20
2022-09-09T22:21:09.259Z,13.20
2022-09-09T22:23:36.751Z,13.20
2022-09-09T22:26:05.030Z,13.20
2022-09-09T22:28:33.819Z,13.10
2022-09-09T22:31:01.003Z,13.10
2022-09-09T22:33:28.114Z,13.00
2022-09-09T22:35:55.090Z,12.90
2022-09-09T22:38:22.374Z,12.90
2022-09-09T22:40:49.600Z,12.80
2022-09-09T22:43:19.502Z,12.80
2022-09-09T22:45:47.070Z,12.80
2022-09-09T22:48:15.981Z,12.80
2022-09-09T22:50:43.063Z,12.90
2022-09-09T22:53:14.268Z,13.00
2022-09-09T22:55:42.168Z,13.10
2022-09-09T22:58:09.779Z,13.20
2022-09-09T23:00:41.122Z,13.30
2022-09-09T23:03:08.336Z,13.40
2022-09-09T23:05:35.285Z,13.40
2022-09-09T23:08:02.293Z,13.40
2022-09-09T23:10:29.331Z,13.50
2022-09-09T23:12:56.695Z,13.50
2022-09-09T23:15:24.044Z,13.50
2022-09-09T23:17:52.182Z,13.40
2022-09-09T23:20:22.212Z,13.50
2022-09-09T23:22:49.016Z,13.50
2022-09-09T23:25:15.812Z,13.50
2022-09-09T23:27:42.652Z,13.50
2022-09-09T23:30:11.651Z,13.50
2022-09-09T23:32:38.913Z,13.50
2022-09-09T23:35:07.550Z,13.50
2022-09-09T23:37:34.693Z,13.50
2022-09-09T23:40:01.800Z,13.40
2022-09-09T23:42:33.419Z,13.40
2022-09-09T23:45:00.326Z,13.30
2022-09-09T23:47:28.299Z,13.30
2022-09-09T23:49:55.124Z,13.20
2022-09-09T23:52:23.370Z,13.20
2022-09-09T23:54:50.144Z,13.10
2022-09-09T23:57:16.971Z,13.00
2022-09-09T23:59:43.743Z,13.00
